sensor_id;sensor_type;location;lat;lon;timestamp;P1;durP1;ratioP1;P2;durP2;ratioP2
21647;SDS011;10985;54.182;7.890;2022-09-09T07:44:38;27.25;;;21.83;;
21647;SDS011;10985;54.182;7.890;2022-09-09T07:47:05;31.27;;;21.33;;
21647;SDS011;10985;54.182;7.890;2022-09-09T07:49:30;30.98;;;20.85;;
21647;SDS011;10985;54.182;7.890;2022-09-09T07:51:57;26.02;;;19.23;;
21647;SDS011;10985;54.182;7.890;2022-09-09T07:54:22;31.23;;;20.00;;
21647;SDS011;10985;54.182;7.890;2022-09-09T07:56:48;22.52;;;18.55;;
21647;SDS011;10985;54.182;7.890;2022-09-09T07:59:15;19.85;;;17.45;;
21647;SDS011;10985;54.182;7.890;2022-09-09T08:01:42;21.17;;;18.92;;
21647;SDS011;10985;54.182;7.890;2022-09-09T08:04:11;21.13;;;18.17;;
21647;SDS011;10985;54.182;7.890;2022-09-09T08:06:42;22.85;;;16.95;;
21647;SDS011;10985;54.182;7.890;2022-09-09T08:09:11;20.38;;;16.58;;
21647;SDS011;10985;54.182;7.890;2022-09-09T08:11:38;21.70;;;16.52;;
21647;SDS011;10985;54.182;7.890;2022-09-09T08:14:05;18.02;;;14.73;;
21647;SDS011;10985;54.182;7.890;2022-09-09T08:16:33;20.80;;;16.52;;
21647;SDS011;10985;54.182;7.890;2022-09-09T08:19:01;18.17;;;15.93;;
21647;SDS011;10985;54.182;7.890;2022-09-09T08:21:29;21.00;;;14.93;;
21647;SDS011;10985;54.182;7.890;2022-09-09T08:23:57;22.65;;;16.83;;
21647;SDS011;10985;54.182;7.890;2022-09-09T08:26:24;17.75;;;13.48;;
21647;SDS011;10985;54.182;7.890;2022-09-09T08:28:53;17.33;;;13.38;;
21647;SDS011;10985;54.182;7.890;2022-09-09T08:31:21;15.40;;;11.15;;
21647;SDS011;10985;54.182;7.890;2022-09-09T08:33:49;13.90;;;10.15;;
21647;SDS011;10985;54.182;7.890;2022-09-09T08:36:18;13.93;;;10.25;;
21647;SDS011;10985;54.182;7.890;2022-09-09T08:38:50;17.90;;;10.77;;
21647;SDS011;10985;54.182;7.890;2022-09-09T08:41:27;15.32;;;10.68;;
21647;SDS011;10985;54.182;7.890;2022-09-09T08:44:25;12.77;;;9.75;;
21647;SDS011;10985;54.182;7.890;2022-09-09T08:49:56;8.90;;;8.02;;
21647;SDS011;10985;54.182;7.890;2022-09-09T08:55:03;11.75;;;7.80;;
21647;SDS011;10985;54.182;7.890;2022-09-09T08:57:35;11.73;;;7.78;;
21647;SDS011;10985;54.182;7.890;2022-09-09T09:00:01;10.93;;;7.00;;
21647;SDS011;10985;54.182;7.890;2022-09-09T09:05:07;13.18;;;7.93;;
21647;SDS011;10985;54.182;7.890;2022-09-09T09:07:42;10.52;;;7.32;;
21647;SDS011;10985;54.182;7.890;2022-09-09T09:10:20;7.57;;;6.57;;
21647;SDS011;10985;54.182;7.890;2022-09-09T09:13:19;10.73;;;6.82;;
21647;SDS011;10985;54.182;7.890;2022-09-09T09:15:55;7.30;;;6.15;;
21647;SDS011;10985;54.182;7.890;2022-09-09T09:18:27;9.93;;;6.20;;
21647;SDS011;10985;54.182;7.890;2022-09-09T09:24:18;7.38;;;5.65;;
21647;SDS011;10985;54.182;7.890;2022-09-09T09:26:23;11.57;;;5.20;;
21647;SDS011;10985;54.182;7.890;2022-09-09T09:28:54;9.80;;;4.90;;
21647;SDS011;10985;54.182;7.890;2022-09-09T09:31:22;9.23;;;4.40;;
21647;SDS011;10985;54.182;7.890;2022-09-09T09:33:50;6.40;;;4.50;;
21647;SDS011;10985;54.182;7.890;2022-09-09T09:36:17;8.00;;;4.35;;
21647;SDS011;10985;54.182;7.890;2022-09-09T09:38:54;6.90;;;4.10;;
21647;SDS011;10985;54.182;7.890;2022-09-09T09:41:41;7.78;;;4.50;;
21647;SDS011;10985;54.182;7.890;2022-09-09T09:47:04;8.82;;;4.38;;
21647;SDS011;10985;54.182;7.890;2022-09-09T09:49:35;5.95;;;4.35;;
21647;SDS011;10985;54.182;7.890;2022-09-09T09:52:02;7.28;;;4.35;;
21647;SDS011;10985;54.182;7.890;2022-09-09T09:54:30;9.18;;;3.40;;
21647;SDS011;10985;54.182;7.890;2022-09-09T09:57:14;10.13;;;3.38;;
21647;SDS011;10985;54.182;7.890;2022-09-09T09:59:41;4.90;;;2.50;;
21647;SDS011;10985;54.182;7.890;2022-09-09T10:02:20;5.13;;;3.00;;
21647;SDS011;10985;54.182;7.890;2022-09-09T10:08:04;3.72;;;2.20;;
21647;SDS011;10985;54.182;7.890;2022-09-09T10:10:41;4.72;;;2.10;;
21647;SDS011;10985;54.182;7.890;2022-09-09T10:13:18;6.47;;;1.90;;
21647;SDS011;10985;54.182;7.890;2022-09-09T10:18:43;4.13;;;2.10;;
21647;SDS011;10985;54.182;7.890;2022-09-09T10:21:32;4.10;;;2.13;;
21647;SDS011;10985;54.182;7.890;2022-09-09T10:26:48;3.72;;;1.90;;
21647;SDS011;10985;54.182;7.890;2022-09-09T10:32:38;8.77;;;2.60;;
21647;SDS011;10985;54.182;7.890;2022-09-09T10:35:12;5.53;;;2.40;;
21647;SDS011;10985;54.182;7.890;2022-09-09T10:43:13;10.15;;;3.10;;
21647;SDS011;10985;54.182;7.890;2022-09-09T10:52:09;7.88;;;3.45;;
21647;SDS011;10985;54.182;7.890;2022-09-09T10:54:54;8.20;;;3.60;;
21647;SDS011;10985;54.182;7.890;2022-09-09T11:00:03;13.88;;;5.75;;
21647;SDS011;10985;54.182;7.890;2022-09-09T11:02:33;9.02;;;3.53;;
21647;SDS011;10985;54.182;7.890;2022-09-09T11:05:01;9.13;;;4.10;;
21647;SDS011;10985;54.182;7.890;2022-09-09T11:07:40;7.03;;;3.40;;
21647;SDS011;10985;54.182;7.890;2022-09-09T11:12:56;5.13;;;3.80;;
21647;SDS011;10985;54.182;7.890;2022-09-09T11:15:28;8.77;;;3.67;;
21647;SDS011;10985;54.182;7.890;2022-09-09T11:18:05;5.28;;;3.83;;
21647;SDS011;10985;54.182;7.890;2022-09-09T11:20:36;5.50;;;3.70;;
21647;SDS011;10985;54.182;7.890;2022-09-09T11:23:03;5.00;;;3.03;;
21647;SDS011;10985;54.182;7.890;2022-09-09T11:25:35;14.95;;;3.60;;
21647;SDS011;10985;54.182;7.890;2022-09-09T11:28:10;7.35;;;3.10;;
21647;SDS011;10985;54.182;7.890;2022-09-09T11:30:54;6.03;;;3.35;;
21647;SDS011;10985;54.182;7.890;2022-09-09T11:39:36;7.05;;;2.83;;
21647;SDS011;10985;54.182;7.890;2022-09-09T11:44:39;5.05;;;3.30;;
21647;SDS011;10985;54.182;7.890;2022-09-09T11:52:44;3.88;;;3.15;;
21647;SDS011;10985;54.182;7.890;2022-09-09T11:55:25;7.32;;;3.05;;
21647;SDS011;10985;54.182;7.890;2022-09-09T11:58:00;5.85;;;3.45;;
21647;SDS011;10985;54.182;7.890;2022-09-09T12:03:41;6.88;;;3.78;;
21647;SDS011;10985;54.182;7.890;2022-09-09T12:06:16;6.00;;;4.05;;
21647;SDS011;10985;54.182;7.890;2022-09-09T12:08:58;7.13;;;4.05;;
21647;SDS011;10985;54.182;7.890;2022-09-09T12:11:42;8.30;;;4.40;;
21647;SDS011;10985;54.182;7.890;2022-09-09T12:14:18;9.23;;;4.30;;
21647;SDS011;10985;54.182;7.890;2022-09-09T12:16:58;5.95;;;4.45;;
21647;SDS011;10985;54.182;7.890;2022-09-09T12:19:44;6.90;;;4.35;;
21647;SDS011;10985;54.182;7.890;2022-09-09T12:25:00;9.18;;;4.85;;
21647;SDS011;10985;54.182;7.890;2022-09-09T12:27:50;7.47;;;4.55;;
21647;SDS011;10985;54.182;7.890;2022-09-09T12:30:22;9.18;;;4.53;;
21647;SDS011;10985;54.182;7.890;2022-09-09T12:33:06;6.68;;;4.70;;
21647;SDS011;10985;54.182;7.890;2022-09-09T12:35:38;7.80;;;4.63;;
21647;SDS011;10985;54.182;7.890;2022-09-09T12:38:05;5.35;;;4.38;;
21647;SDS011;10985;54.182;7.890;2022-09-09T12:40:36;8.88;;;4.40;;
21647;SDS011;10985;54.182;7.890;2022-09-09T12:43:14;7.82;;;4.63;;
21647;SDS011;10985;54.182;7.890;2022-09-09T12:45:46;6.50;;;4.75;;
21647;SDS011;10985;54.182;7.890;2022-09-09T12:48:15;7.97;;;4.25;;
21647;SDS011;10985;54.182;7.890;2022-09-09T12:50:45;10.23;;;5.35;;
21647;SDS011;10985;54.182;7.890;2022-09-09T12:53:22;10.05;;;5.80;;
21647;SDS011;10985;54.182;7.890;2022-09-09T12:55:51;10.30;;;5.97;;
21647;SDS011;10985;54.182;7.890;2022-09-09T12:58:25;6.97;;;6.38;;
21647;SDS011;10985;54.182;7.890;2022-09-09T13:00:54;8.80;;;6.68;;
21647;SDS011;10985;54.182;7.890;2022-09-09T13:03:23;9.07;;;7.53;;
21647;SDS011;10985;54.182;7.890;2022-09-09T13:05:52;11.25;;;7.30;;
21647;SDS011;10985;54.182;7.890;2022-09-09T13:08:19;10.05;;;6.88;;
21647;SDS011;10985;54.182;7.890;2022-09-09T13:13:26;8.82;;;6.55;;
21647;SDS011;10985;54.182;7.890;2022-09-09T13:16:22;7.90;;;6.50;;
21647;SDS011;10985;54.182;7.890;2022-09-09T13:18:56;9.80;;;5.32;;
21647;SDS011;10985;54.182;7.890;2022-09-09T13:21:41;6.05;;;4.93;;
21647;SDS011;10985;54.182;7.890;2022-09-09T13:27:00;9.63;;;6.38;;
21647;SDS011;10985;54.182;7.890;2022-09-09T13:29:27;6.70;;;6.03;;
21647;SDS011;10985;54.182;7.890;2022-09-09T13:31:54;10.00;;;5.30;;
21647;SDS011;10985;54.182;7.890;2022-09-09T13:34:34;17.20;;;11.65;;
21647;SDS011;10985;54.182;7.890;2022-09-09T13:37:07;12.73;;;6.18;;
21647;SDS011;10985;54.182;7.890;2022-09-09T13:39:52;10.70;;;5.40;;
21647;SDS011;10985;54.182;7.890;2022-09-09T13:42:26;6.75;;;4.65;;
21647;SDS011;10985;54.182;7.890;2022-09-09T13:44:54;7.07;;;4.95;;
21647;SDS011;10985;54.182;7.890;2022-09-09T13:47:22;8.55;;;5.30;;
21647;SDS011;10985;54.182;7.890;2022-09-09T13:49:55;9.63;;;5.35;;
21647;SDS011;10985;54.182;7.890;2022-09-09T13:52:20;7.28;;;5.32;;
21647;SDS011;10985;54.182;7.890;2022-09-09T13:54:47;11.95;;;5.20;;
21647;SDS011;10985;54.182;7.890;2022-09-09T13:57:15;11.27;;;6.15;;
21647;SDS011;10985;54.182;7.890;2022-09-09T13:59:50;9.48;;;5.38;;
21647;SDS011;10985;54.182;7.890;2022-09-09T14:02:18;8.98;;;4.93;;
21647;SDS011;10985;54.182;7.890;2022-09-09T14:04:44;10.02;;;5.53;;
21647;SDS011;10985;54.182;7.890;2022-09-09T14:07:13;8.32;;;4.80;;
21647;SDS011;10985;54.182;7.890;2022-09-09T14:09:40;8.45;;;5.35;;
21647;SDS011;10985;54.182;7.890;2022-09-09T14:12:10;6.47;;;5.85;;
21647;SDS011;10985;54.182;7.890;2022-09-09T14:14:36;10.73;;;5.68;;
21647;SDS011;10985;54.182;7.890;2022-09-09T14:17:02;7.57;;;5.25;;
21647;SDS011;10985;54.182;7.890;2022-09-09T14:19:28;13.13;;;5.72;;
21647;SDS011;10985;54.182;7.890;2022-09-09T14:21:54;12.00;;;4.82;;
21647;SDS011;10985;54.182;7.890;2022-09-09T14:24:19;5.65;;;5.07;;
21647;SDS011;10985;54.182;7.890;2022-09-09T14:26:45;11.20;;;5.50;;
21647;SDS011;10985;54.182;7.890;2022-09-09T14:29:10;6.88;;;5.63;;
21647;SDS011;10985;54.182;7.890;2022-09-09T14:31:36;10.27;;;6.85;;
21647;SDS011;10985;54.182;7.890;2022-09-09T14:34:01;10.40;;;7.70;;
21647;SDS011;10985;54.182;7.890;2022-09-09T14:36:27;15.95;;;10.20;;
21647;SDS011;10985;54.182;7.890;2022-09-09T14:38:52;11.93;;;8.55;;
21647;SDS011;10985;54.182;7.890;2022-09-09T14:41:19;11.85;;;8.48;;
21647;SDS011;10985;54.182;7.890;2022-09-09T14:43:47;8.88;;;7.97;;
21647;SDS011;10985;54.182;7.890;2022-09-09T14:46:13;15.55;;;8.82;;
21647;SDS011;10985;54.182;7.890;2022-09-09T14:48:41;17.55;;;9.98;;
21647;SDS011;10985;54.182;7.890;2022-09-09T14:51:14;19.42;;;11.75;;
21647;SDS011;10985;54.182;7.890;2022-09-09T14:53:44;14.07;;;11.45;;
21647;SDS011;10985;54.182;7.890;2022-09-09T14:56:17;20.58;;;7.43;;
21647;SDS011;10985;54.182;7.890;2022-09-09T14:58:45;26.30;;;5.60;;
21647;SDS011;10985;54.182;7.890;2022-09-09T15:01:12;32.58;;;6.10;;
21647;SDS011;10985;54.182;7.890;2022-09-09T15:03:39;32.67;;;5.82;;
21647;SDS011;10985;54.182;7.890;2022-09-09T15:06:15;41.13;;;17.52;;
21647;SDS011;10985;54.182;7.890;2022-09-09T15:08:41;22.60;;;5.95;;
21647;SDS011;10985;54.182;7.890;2022-09-09T15:11:09;16.80;;;3.80;;
21647;SDS011;10985;54.182;7.890;2022-09-09T15:13:36;19.02;;;4.35;;
21647;SDS011;10985;54.182;7.890;2022-09-09T15:16:07;19.25;;;5.07;;
21647;SDS011;10985;54.182;7.890;2022-09-09T15:18:35;20.65;;;5.38;;
21647;SDS011;10985;54.182;7.890;2022-09-09T15:21:01;19.02;;;4.90;;
21647;SDS011;10985;54.182;7.890;2022-09-09T15:23:33;12.43;;;6.57;;
21647;SDS011;10985;54.182;7.890;2022-09-09T15:25:59;15.60;;;7.43;;
21647;SDS011;10985;54.182;7.890;2022-09-09T15:28:25;15.10;;;7.60;;
21647;SDS011;10985;54.182;7.890;2022-09-09T15:30:51;18.20;;;6.38;;
21647;SDS011;10985;54.182;7.890;2022-09-09T15:33:18;23.20;;;6.35;;
21647;SDS011;10985;54.182;7.890;2022-09-09T15:35:44;26.30;;;7.38;;
21647;SDS011;10985;54.182;7.890;2022-09-09T15:38:10;23.95;;;7.18;;
21647;SDS011;10985;54.182;7.890;2022-09-09T15:40:37;22.25;;;7.38;;
21647;SDS011;10985;54.182;7.890;2022-09-09T15:43:04;25.90;;;7.82;;
21647;SDS011;10985;54.182;7.890;2022-09-09T15:45:31;21.67;;;7.05;;
21647;SDS011;10985;54.182;7.890;2022-09-09T15:47:58;14.50;;;6.78;;
21647;SDS011;10985;54.182;7.890;2022-09-09T15:50:27;6.35;;;3.50;;
21647;SDS011;10985;54.182;7.890;2022-09-09T15:52:55;7.15;;;4.38;;
21647;SDS011;10985;54.182;7.890;2022-09-09T15:55:20;9.25;;;3.22;;
21647;SDS011;10985;54.182;7.890;2022-09-09T15:57:46;9.52;;;4.10;;
21647;SDS011;10985;54.182;7.890;2022-09-09T16:00:12;9.80;;;4.88;;
21647;SDS011;10985;54.182;7.890;2022-09-09T16:02:38;39.03;;;17.20;;
21647;SDS011;10985;54.182;7.890;2022-09-09T16:05:04;28.02;;;10.38;;
21647;SDS011;10985;54.182;7.890;2022-09-09T16:07:30;17.40;;;8.32;;
21647;SDS011;10985;54.182;7.890;2022-09-09T16:09:56;20.75;;;13.60;;
21647;SDS011;10985;54.182;7.890;2022-09-09T16:12:21;32.90;;;16.67;;
21647;SDS011;10985;54.182;7.890;2022-09-09T16:14:47;39.53;;;24.98;;
21647;SDS011;10985;54.182;7.890;2022-09-09T16:17:12;34.03;;;22.27;;
21647;SDS011;10985;54.182;7.890;2022-09-09T16:19:39;37.38;;;22.75;;
21647;SDS011;10985;54.182;7.890;2022-09-09T16:22:04;21.13;;;14.68;;
21647;SDS011;10985;54.182;7.890;2022-09-09T16:24:31;17.17;;;9.57;;
21647;SDS011;10985;54.182;7.890;2022-09-09T16:26:57;10.25;;;7.20;;
21647;SDS011;10985;54.182;7.890;2022-09-09T16:29:23;16.20;;;8.98;;
21647;SDS011;10985;54.182;7.890;2022-09-09T16:31:52;17.23;;;11.10;;
21647;SDS011;10985;54.182;7.890;2022-09-09T16:34:18;20.80;;;15.18;;
21647;SDS011;10985;54.182;7.890;2022-09-09T16:36:45;9.98;;;6.05;;
21647;SDS011;10985;54.182;7.890;2022-09-09T16:39:12;9.07;;;3.95;;
21647;SDS011;10985;54.182;7.890;2022-09-09T16:41:43;6.10;;;5.43;;
21647;SDS011;10985;54.182;7.890;2022-09-09T16:44:10;7.88;;;5.03;;
21647;SDS011;10985;54.182;7.890;2022-09-09T16:46:38;6.82;;;3.33;;
21647;SDS011;10985;54.182;7.890;2022-09-09T16:49:06;8.50;;;4.50;;
21647;SDS011;10985;54.182;7.890;2022-09-09T16:51:34;11.93;;;7.28;;
21647;SDS011;10985;54.182;7.890;2022-09-09T16:54:04;15.38;;;5.20;;
21647;SDS011;10985;54.182;7.890;2022-09-09T16:56:32;12.73;;;5.57;;
21647;SDS011;10985;54.182;7.890;2022-09-09T16:59:02;5.55;;;4.05;;
21647;SDS011;10985;54.182;7.890;2022-09-09T17:01:30;13.13;;;5.70;;
21647;SDS011;10985;54.182;7.890;2022-09-09T17:04:01;7.28;;;5.32;;
21647;SDS011;10985;54.182;7.890;2022-09-09T17:06:28;12.93;;;6.40;;
21647;SDS011;10985;54.182;7.890;2022-09-09T17:08:58;9.82;;;5.03;;
21647;SDS011;10985;54.182;7.890;2022-09-09T17:11:26;6.15;;;3.88;;
21647;SDS011;10985;54.182;7.890;2022-09-09T17:13:53;6.45;;;3.55;;
21647;SDS011;10985;54.182;7.890;2022-09-09T17:16:20;20.77;;;13.52;;
21647;SDS011;10985;54.182;7.890;2022-09-09T17:18:47;12.73;;;7.78;;
21647;SDS011;10985;54.182;7.890;2022-09-09T17:21:15;9.05;;;4.85;;
21647;SDS011;10985;54.182;7.890;2022-09-09T17:23:43;4.47;;;3.38;;
21647;SDS011;10985;54.182;7.890;2022-09-09T17:26:10;10.63;;;7.75;;
21647;SDS011;10985;54.182;7.890;2022-09-09T17:28:38;4.50;;;2.67;;
21647;SDS011;10985;54.182;7.890;2022-09-09T17:31:05;5.97;;;3.72;;
21647;SDS011;10985;54.182;7.890;2022-09-09T17:33:36;5.88;;;3.90;;
21647;SDS011;10985;54.182;7.890;2022-09-09T17:36:46;8.70;;;4.32;;
21647;SDS011;10985;54.182;7.890;2022-09-09T17:38:55;6.45;;;3.90;;
21647;SDS011;10985;54.182;7.890;2022-09-09T17:41:22;6.97;;;4.05;;
21647;SDS011;10985;54.182;7.890;2022-09-09T17:43:49;10.55;;;6.93;;
21647;SDS011;10985;54.182;7.890;2022-09-09T17:46:17;10.65;;;5.70;;
21647;SDS011;10985;54.182;7.890;2022-09-09T17:48:47;7.85;;;5.70;;
21647;SDS011;10985;54.182;7.890;2022-09-09T17:51:15;11.75;;;7.00;;
21647;SDS011;10985;54.182;7.890;2022-09-09T17:53:45;11.88;;;8.60;;
21647;SDS011;10985;54.182;7.890;2022-09-09T17:56:13;13.18;;;6.68;;
21647;SDS011;10985;54.182;7.890;2022-09-09T17:58:40;10.43;;;6.70;;
21647;SDS011;10985;54.182;7.890;2022-09-09T18:01:07;14.60;;;9.43;;
21647;SDS011;10985;54.182;7.890;2022-09-09T18:03:36;19.85;;;12.02;;
21647;SDS011;10985;54.182;7.890;2022-09-09T18:06:04;10.80;;;8.07;;
21647;SDS011;10985;54.182;7.890;2022-09-09T18:08:32;10.25;;;7.03;;
21647;SDS011;10985;54.182;7.890;2022-09-09T18:10:59;10.45;;;6.90;;
21647;SDS011;10985;54.182;7.890;2022-09-09T18:13:25;5.75;;;3.92;;
21647;SDS011;10985;54.182;7.890;2022-09-09T18:15:51;8.15;;;4.80;;
21647;SDS011;10985;54.182;7.890;2022-09-09T18:18:17;9.50;;;5.78;;
21647;SDS011;10985;54.182;7.890;2022-09-09T18:20:43;7.03;;;4.50;;
21647;SDS011;10985;54.182;7.890;2022-09-09T18:23:09;8.32;;;7.60;;
21647;SDS011;10985;54.182;7.890;2022-09-09T18:25:40;6.75;;;3.85;;
21647;SDS011;10985;54.182;7.890;2022-09-09T18:28:06;5.30;;;2.40;;
21647;SDS011;10985;54.182;7.890;2022-09-09T18:30:32;4.97;;;2.63;;
21647;SDS011;10985;54.182;7.890;2022-09-09T18:32:58;6.80;;;3.63;;
21647;SDS011;10985;54.182;7.890;2022-09-09T18:35:24;6.93;;;3.45;;
21647;SDS011;10985;54.182;7.890;2022-09-09T18:37:49;6.65;;;4.15;;
21647;SDS011;10985;54.182;7.890;2022-09-09T18:40:15;4.20;;;3.80;;
21647;SDS011;10985;54.182;7.890;2022-09-09T18:42:42;5.05;;;3.08;;
21647;SDS011;10985;54.182;7.890;2022-09-09T18:45:07;4.55;;;3.75;;
21647;SDS011;10985;54.182;7.890;2022-09-09T18:47:33;5.45;;;3.60;;
21647;SDS011;10985;54.182;7.890;2022-09-09T18:49:59;4.53;;;3.78;;
21647;SDS011;10985;54.182;7.890;2022-09-09T18:52:25;3.40;;;2.92;;
21647;SDS011;10985;54.182;7.890;2022-09-09T18:54:51;6.38;;;4.00;;
21647;SDS011;10985;54.182;7.890;2022-09-09T18:57:16;7.20;;;6.05;;
21647;SDS011;10985;54.182;7.890;2022-09-09T18:59:42;4.80;;;3.67;;
21647;SDS011;10985;54.182;7.890;2022-09-09T19:02:08;5.32;;;3.42;;
21647;SDS011;10985;54.182;7.890;2022-09-09T19:04:36;6.60;;;4.00;;
21647;SDS011;10985;54.182;7.890;2022-09-09T19:07:02;5.25;;;4.05;;
21647;SDS011;10985;54.182;7.890;2022-09-09T19:09:29;5.50;;;4.95;;
21647;SDS011;10985;54.182;7.890;2022-09-09T19:11:58;8.65;;;5.57;;
21647;SDS011;10985;54.182;7.890;2022-09-09T19:14:24;7.82;;;6.65;;
21647;SDS011;10985;54.182;7.890;2022-09-09T19:16:50;11.75;;;6.47;;
21647;SDS011;10985;54.182;7.890;2022-09-09T19:19:19;10.50;;;6.45;;
21647;SDS011;10985;54.182;7.890;2022-09-09T19:21:47;9.65;;;7.47;;
21647;SDS011;10985;54.182;7.890;2022-09-09T19:24:16;11.00;;;7.35;;
21647;SDS011;10985;54.182;7.890;2022-09-09T19:26:45;9.15;;;8.23;;
21647;SDS011;10985;54.182;7.890;2022-09-09T19:29:13;10.65;;;8.45;;
21647;SDS011;10985;54.182;7.890;2022-09-09T19:31:47;11.10;;;8.80;;
21647;SDS011;10985;54.182;7.890;2022-09-09T19:34:13;17.00;;;10.43;;
21647;SDS011;10985;54.182;7.890;2022-09-09T19:36:39;12.20;;;10.15;;
21647;SDS011;10985;54.182;7.890;2022-09-09T19:39:06;14.35;;;9.95;;
21647;SDS011;10985;54.182;7.890;2022-09-09T19:41:32;15.98;;;9.88;;
21647;SDS011;10985;54.182;7.890;2022-09-09T19:43:59;16.95;;;10.32;;
21647;SDS011;10985;54.182;7.890;2022-09-09T19:46:30;13.63;;;10.52;;
21647;SDS011;10985;54.182;7.890;2022-09-09T19:48:58;10.95;;;9.38;;
21647;SDS011;10985;54.182;7.890;2022-09-09T19:51:25;14.55;;;10.30;;
21647;SDS011;10985;54.182;7.890;2022-09-09T19:53:54;12.80;;;9.25;;
21647;SDS011;10985;54.182;7.890;2022-09-09T19:56:22;15.20;;;8.70;;
21647;SDS011;10985;54.182;7.890;2022-09-09T20:01:19;10.70;;;9.60;;
21647;SDS011;10985;54.182;7.890;2022-09-09T20:03:50;18.52;;;10.02;;
21647;SDS011;10985;54.182;7.890;2022-09-09T20:06:19;18.35;;;9.85;;
21647;SDS011;10985;54.182;7.890;2022-09-09T20:08:47;13.60;;;9.73;;
21647;SDS011;10985;54.182;7.890;2022-09-09T20:11:14;15.15;;;10.30;;
21647;SDS011;10985;54.182;7.890;2022-09-09T20:13:40;14.32;;;9.23;;
21647;SDS011;10985;54.182;7.890;2022-09-09T20:16:08;15.90;;;10.10;;
21647;SDS011;10985;54.182;7.890;2022-09-09T20:18:36;13.38;;;9.15;;
21647;SDS011;10985;54.182;7.890;2022-09-09T20:21:08;13.27;;;10.57;;
21647;SDS011;10985;54.182;7.890;2022-09-09T20:23:36;19.55;;;11.32;;
21647;SDS011;10985;54.182;7.890;2022-09-09T20:26:04;13.15;;;10.48;;
21647;SDS011;10985;54.182;7.890;2022-09-09T20:28:32;13.23;;;10.07;;
21647;SDS011;10985;54.182;7.890;2022-09-09T20:31:06;16.90;;;11.57;;
21647;SDS011;10985;54.182;7.890;2022-09-09T20:33:36;15.63;;;12.77;;
21647;SDS011;10985;54.182;7.890;2022-09-09T20:36:15;19.13;;;14.02;;
21647;SDS011;10985;54.182;7.890;2022-09-09T20:38:56;21.15;;;15.77;;
21647;SDS011;10985;54.182;7.890;2022-09-09T20:41:24;21.05;;;16.73;;
21647;SDS011;10985;54.182;7.890;2022-09-09T20:43:52;20.73;;;16.55;;
21647;SDS011;10985;54.182;7.890;2022-09-09T20:46:23;25.55;;;17.75;;
21647;SDS011;10985;54.182;7.890;2022-09-09T20:48:51;17.20;;;13.35;;
21647;SDS011;10985;54.182;7.890;2022-09-09T20:51:20;17.27;;;11.48;;
21647;SDS011;10985;54.182;7.890;2022-09-09T20:53:47;12.93;;;11.35;;
21647;SDS011;10985;54.182;7.890;2022-09-09T20:56:19;16.65;;;10.38;;
21647;SDS011;10985;54.182;7.890;2022-09-09T20:58:44;15.85;;;9.32;;
21647;SDS011;10985;54.182;7.890;2022-09-09T21:01:12;13.98;;;9.35;;
21647;SDS011;10985;54.182;7.890;2022-09-09T21:03:40;12.95;;;8.98;;
21647;SDS011;10985;54.182;7.890;2022-09-09T21:06:05;15.57;;;9.95;;
21647;SDS011;10985;54.182;7.890;2022-09-09T21:08:31;13.43;;;9.55;;
21647;SDS011;10985;54.182;7.890;2022-09-09T21:10:58;15.43;;;9.63;;
21647;SDS011;10985;54.182;7.890;2022-09-09T21:13:26;15.43;;;9.93;;
21647;SDS011;10985;54.182;7.890;2022-09-09T21:15:53;14.45;;;9.88;;
21647;SDS011;10985;54.182;7.890;2022-09-09T21:18:19;11.23;;;9.38;;
21647;SDS011;10985;54.182;7.890;2022-09-09T21:20:46;12.73;;;9.75;;
21647;SDS011;10985;54.182;7.890;2022-09-09T21:23:13;15.85;;;11.60;;
21647;SDS011;10985;54.182;7.890;2022-09-09T21:25:39;16.05;;;11.95;;
21647;SDS011;10985;54.182;7.890;2022-09-09T21:28:06;12.20;;;10.93;;
21647;SDS011;10985;54.182;7.890;2022-09-09T21:30:32;31.65;;;24.17;;
21647;SDS011;10985;54.182;7.890;2022-09-09T21:32:59;17.42;;;15.57;;
21647;SDS011;10985;54.182;7.890;2022-09-09T21:35:25;14.43;;;12.52;;
21647;SDS011;10985;54.182;7.890;2022-09-09T21:37:51;15.55;;;12.77;;
21647;SDS011;10985;54.182;7.890;2022-09-09T21:40:17;16.45;;;13.00;;
21647;SDS011;10985;54.182;7.890;2022-09-09T21:42:44;15.75;;;13.32;;
21647;SDS011;10985;54.182;7.890;2022-09-09T21:45:10;16.15;;;12.90;;
21647;SDS011;10985;54.182;7.890;2022-09-09T21:47:35;18.58;;;13.43;;
21647;SDS011;10985;54.182;7.890;2022-09-09T21:50:01;14.90;;;12.25;;
21647;SDS011;10985;54.182;7.890;2022-09-09T21:52:27;22.63;;;14.05;;
21647;SDS011;10985;54.182;7.890;2022-09-09T21:54:53;18.85;;;13.13;;
21647;SDS011;10985;54.182;7.890;2022-09-09T21:57:19;18.40;;;13.23;;
21647;SDS011;10985;54.182;7.890;2022-09-09T21:59:45;16.88;;;12.93;;
21647;SDS011;10985;54.182;7.890;2022-09-09T22:02:11;14.25;;;12.77;;
21647;SDS011;10985;54.182;7.890;2022-09-09T22:04:38;24.98;;;12.13;;
21647;SDS011;10985;54.182;7.890;2022-09-09T22:07:08;17.52;;;12.10;;
21647;SDS011;10985;54.182;7.890;2022-09-09T22:09:33;15.18;;;11.75;;
21647;SDS011;10985;54.182;7.890;2022-09-09T22:12:00;15.00;;;11.10;;
21647;SDS011;10985;54.182;7.890;2022-09-09T22:14:25;15.43;;;12.30;;
21647;SDS011;10985;54.182;7.890;2022-09-09T22:16:51;16.73;;;11.68;;
21647;SDS011;10985;54.182;7.890;2022-09-09T22:19:17;13.75;;;10.93;;
21647;SDS011;10985;54.182;7.890;2022-09-09T22:21:42;13.60;;;10.93;;
21647;SDS011;10985;54.182;7.890;2022-09-09T22:24:08;11.30;;;10.20;;
21647;SDS011;10985;54.182;7.890;2022-09-09T22:26:34;17.35;;;11.15;;
21647;SDS011;10985;54.182;7.890;2022-09-09T22:29:01;15.48;;;12.02;;
21647;SDS011;10985;54.182;7.890;2022-09-09T22:31:29;13.82;;;11.55;;
21647;SDS011;10985;54.182;7.890;2022-09-09T22:33:54;12.43;;;11.25;;
21647;SDS011;10985;54.182;7.890;2022-09-09T22:36:20;13.73;;;10.80;;
21647;SDS011;10985;54.182;7.890;2022-09-09T22:38:46;15.98;;;10.95;;
21647;SDS011;10985;54.182;7.890;2022-09-09T22:41:12;10.95;;;8.02;;
21647;SDS011;10985;54.182;7.890;2022-09-09T22:43:40;7.72;;;6.82;;
21647;SDS011;10985;54.182;7.890;2022-09-09T22:46:07;10.65;;;6.40;;
21647;SDS011;10985;54.182;7.890;2022-09-09T22:48:33;8.60;;;6.10;;
21647;SDS011;10985;54.182;7.890;2022-09-09T22:51:01;11.90;;;7.38;;
21647;SDS011;10985;54.182;7.890;2022-09-09T22:53:27;7.60;;;5.70;;
21647;SDS011;10985;54.182;7.890;2022-09-09T22:56:01;7.70;;;5.90;;
21647;SDS011;10985;54.182;7.890;2022-09-09T22:58:29;6.78;;;6.00;;
21647;SDS011;10985;54.182;7.890;2022-09-09T23:00:57;11.52;;;5.53;;
21647;SDS011;10985;54.182;7.890;2022-09-09T23:03:26;7.80;;;5.70;;
21647;SDS011;10985;54.182;7.890;2022-09-09T23:05:58;10.02;;;6.90;;
21647;SDS011;10985;54.182;7.890;2022-09-09T23:08:25;9.52;;;5.55;;
21647;SDS011;10985;54.182;7.890;2022-09-09T23:11:04;8.80;;;5.72;;
21647;SDS011;10985;54.182;7.890;2022-09-09T23:13:35;9.35;;;6.43;;
21647;SDS011;10985;54.182;7.890;2022-09-09T23:16:12;12.43;;;6.32;;
21647;SDS011;10985;54.182;7.890;2022-09-09T23:18:40;8.07;;;6.85;;
21647;SDS011;10985;54.182;7.890;2022-09-09T23:21:07;9.20;;;6.47;;
21647;SDS011;10985;54.182;7.890;2022-09-09T23:23:35;11.43;;;7.45;;
21647;SDS011;10985;54.182;7.890;2022-09-09T23:26:05;11.02;;;7.63;;
21647;SDS011;10985;54.182;7.890;2022-09-09T23:28:32;10.50;;;8.40;;
21647;SDS011;10985;54.182;7.890;2022-09-09T23:30:59;11.68;;;9.18;;
21647;SDS011;10985;54.182;7.890;2022-09-09T23:33:25;14.88;;;8.98;;
21647;SDS011;10985;54.182;7.890;2022-09-09T23:36:01;15.93;;;9.68;;
21647;SDS011;10985;54.182;7.890;2022-09-09T23:38:31;13.38;;;9.88;;
21647;SDS011;10985;54.182;7.890;2022-09-09T23:40:59;17.60;;;9.90;;
21647;SDS011;10985;54.182;7.890;2022-09-09T23:43:25;17.48;;;9.65;;